sensor_id;sensor_type;location;lat;lon;timestamp;pressure;altitude;pressure_sealevel;temperature;humidity
52957;BME280;38819;42.692;23.342;2023-12-07T00:01:01;94952.97;;;6.21;83.70
52957;BME280;38819;42.692;23.342;2023-12-07T00:03:26;94959.66;;;6.28;83.54
52957;BME280;38819;42.692;23.342;2023-12-07T00:05:51;94957.25;;;6.27;83.69
52957;BME280;38819;42.692;23.342;2023-12-07T00:08:16;94955.91;;;6.19;83.73
52957;BME280;38819;42.692;23.342;2023-12-07T00:10:42;94961.00;;;6.26;83.26
52957;BME280;38819;42.692;23.342;2023-12-07T00:13:07;94964.22;;;6.38;83.09
52957;BME280;38819;42.692;23.342;2023-12-07T00:15:32;94960.44;;;6.39;82.09
52957;BME280;38819;42.692;23.342;2023-12-07T00:17:57;94962.59;;;6.42;82.13
52957;BME280;38819;42.692;23.342;2023-12-07T00:20:22;94963.09;;;6.49;82.28
52957;BME280;38819;42.692;23.342;2023-12-07T00:22:48;94964.19;;;6.48;82.26
52957;BME280;38819;42.692;23.342;2023-12-07T00:25:13;94957.16;;;6.58;82.04
52957;BME280;38819;42.692;23.342;2023-12-07T00:27:38;94973.00;;;6.59;81.88
52957;BME280;38819;42.692;23.342;2023-12-07T00:30:04;94958.81;;;6.54;82.25
52957;BME280;38819;42.692;23.342;2023-12-07T00:32:29;94961.75;;;6.57;82.22
52957;BME280;38819;42.692;23.342;2023-12-07T00:34:54;94959.53;;;6.70;81.92
52957;BME280;38819;42.692;23.342;2023-12-07T00:37:20;94960.38;;;6.65;82.95
52957;BME280;38819;42.692;23.342;2023-12-07T00:39:45;94951.75;;;6.73;83.21
52957;BME280;38819;42.692;23.342;2023-12-07T00:44:54;94960.34;;;6.75;83.28
52957;BME280;38819;42.692;23.342;2023-12-07T00:47:20;94958.19;;;6.77;83.21
52957;BME280;38819;42.692;23.342;2023-12-07T00:49:45;94957.91;;;6.79;83.16
52957;BME280;38819;42.692;23.342;2023-12-07T00:52:11;94963.81;;;6.76;83.22
52957;BME280;38819;42.692;23.342;2023-12-07T00:54:36;94957.66;;;6.75;82.99
52957;BME280;38819;42.692;23.342;2023-12-07T00:57:01;94957.13;;;6.78;82.68
52957;BME280;38819;42.692;23.342;2023-12-07T00:59:26;94953.03;;;6.86;82.37
52957;BME280;38819;42.692;23.342;2023-12-07T01:01:52;94958.69;;;6.84;82.59
52957;BME280;38819;42.692;23.342;2023-12-07T01:04:17;94956.53;;;6.81;82.64
52957;BME280;38819;42.692;23.342;2023-12-07T01:06:43;94949.31;;;6.82;82.67
52957;BME280;38819;42.692;23.342;2023-12-07T01:09:08;94940.44;;;6.81;83.03
52957;BME280;38819;42.692;23.342;2023-12-07T01:11:38;94946.09;;;6.85;83.05
52957;BME280;38819;42.692;23.342;2023-12-07T01:14:03;94946.63;;;6.82;83.27
52957;BME280;38819;42.692;23.342;2023-12-07T01:16:28;94945.81;;;6.81;82.96
52957;BME280;38819;42.692;23.342;2023-12-07T01:18:53;94952.25;;;6.85;82.22
52957;BME280;38819;42.692;23.342;2023-12-07T01:21:19;94950.09;;;6.88;82.07
52957;BME280;38819;42.692;23.342;2023-12-07T01:23:44;94947.91;;;6.90;82.25
52957;BME280;38819;42.692;23.342;2023-12-07T01:26:10;94949.31;;;6.82;82.60
52957;BME280;38819;42.692;23.342;2023-12-07T01:28:35;94945.56;;;6.78;82.84
52957;BME280;38819;42.692;23.342;2023-12-07T01:31:00;94939.38;;;6.82;82.65
52957;BME280;38819;42.692;23.342;2023-12-07T01:33:26;94945.25;;;6.84;82.82
52957;BME280;38819;42.692;23.342;2023-12-07T01:35:51;94940.72;;;6.85;82.96
52957;BME280;38819;42.692;23.342;2023-12-07T01:38:16;94942.06;;;6.82;82.61
52957;BME280;38819;42.692;23.342;2023-12-07T01:40:42;94936.94;;;6.86;82.90
52957;BME280;38819;42.692;23.342;2023-12-07T01:43:07;94934.78;;;6.88;83.02
52957;BME280;38819;42.692;23.342;2023-12-07T01:45:32;94932.63;;;6.90;82.89
52957;BME280;38819;42.692;23.342;2023-12-07T01:47:57;94935.56;;;6.94;82.52
52957;BME280;38819;42.692;23.342;2023-12-07T01:50:24;94934.47;;;6.95;82.00
52957;BME280;38819;42.692;23.342;2023-12-07T01:52:51;94928.59;;;6.88;81.99
52957;BME280;38819;42.692;23.342;2023-12-07T01:55:17;94934.78;;;6.88;82.13
52957;BME280;38819;42.692;23.342;2023-12-07T01:57:43;94931.34;;;6.77;82.32
52957;BME280;38819;42.692;23.342;2023-12-07T02:00:09;94933.22;;;6.77;82.46
52957;BME280;38819;42.692;23.342;2023-12-07T02:02:35;94934.03;;;6.77;82.83
52957;BME280;38819;42.692;23.342;2023-12-07T02:05:01;94933.81;;;6.68;83.11
52957;BME280;38819;42.692;23.342;2023-12-07T02:07:26;94940.22;;;6.67;82.55
52957;BME280;38819;42.692;23.342;2023-12-07T02:09:52;94932.19;;;6.67;82.88
52957;BME280;38819;42.692;23.342;2023-12-07T02:12:17;94929.19;;;6.74;82.63
52957;BME280;38819;42.692;23.342;2023-12-07T02:14:44;94938.84;;;6.80;82.23
52957;BME280;38819;42.692;23.342;2023-12-07T02:17:14;94933.72;;;6.84;82.12
52957;BME280;38819;42.692;23.342;2023-12-07T02:19:52;94932.66;;;6.85;82.07
52957;BME280;38819;42.692;23.342;2023-12-07T02:22:25;94932.06;;;6.98;81.70
52957;BME280;38819;42.692;23.342;2023-12-07T02:25:01;94927.28;;;6.90;81.75
52957;BME280;38819;42.692;23.342;2023-12-07T02:30:00;94925.28;;;7.06;81.24
52957;BME280;38819;42.692;23.342;2023-12-07T02:32:25;94916.41;;;7.11;80.96
52957;BME280;38819;42.692;23.342;2023-12-07T02:34:50;94922.56;;;7.11;81.08
52957;BME280;38819;42.692;23.342;2023-12-07T02:37:16;94915.63;;;7.10;80.93
52957;BME280;38819;42.692;23.342;2023-12-07T02:39:42;94925.31;;;7.01;81.25
52957;BME280;38819;42.692;23.342;2023-12-07T02:42:07;94919.94;;;7.01;81.05
52957;BME280;38819;42.692;23.342;2023-12-07T02:44:33;94923.44;;;7.01;81.01
52957;BME280;38819;42.692;23.342;2023-12-07T02:46:59;94919.16;;;7.00;80.88
52957;BME280;38819;42.692;23.342;2023-12-07T02:49:24;94916.78;;;6.94;81.19
52957;BME280;38819;42.692;23.342;2023-12-07T02:51:50;94921.59;;;6.97;81.41
52957;BME280;38819;42.692;23.342;2023-12-07T02:54:15;94911.66;;;6.97;81.07
52957;BME280;38819;42.692;23.342;2023-12-07T02:56:40;94918.94;;;6.92;80.95
52957;BME280;38819;42.692;23.342;2023-12-07T02:59:05;94921.34;;;6.88;81.12
52957;BME280;38819;42.692;23.342;2023-12-07T03:01:31;94921.94;;;6.85;81.49
52957;BME280;38819;42.692;23.342;2023-12-07T03:03:56;94925.69;;;6.79;81.69
52957;BME280;38819;42.692;23.342;2023-12-07T03:06:21;94929.22;;;6.69;82.19
52957;BME280;38819;42.692;23.342;2023-12-07T03:08:46;94926.81;;;6.67;81.87
52957;BME280;38819;42.692;23.342;2023-12-07T03:11:12;94931.88;;;6.74;81.79
52957;BME280;38819;42.692;23.342;2023-12-07T03:13:37;94922.25;;;6.68;81.76
52957;BME280;38819;42.692;23.342;2023-12-07T03:16:06;94932.44;;;6.66;81.53
52957;BME280;38819;42.692;23.342;2023-12-07T03:18:31;94932.47;;;6.61;81.03
52957;BME280;38819;42.692;23.342;2023-12-07T03:20:57;94938.66;;;6.51;81.46
52957;BME280;38819;42.692;23.342;2023-12-07T03:23:22;94937.88;;;6.56;81.51
52957;BME280;38819;42.692;23.342;2023-12-07T03:25:47;94941.34;;;6.51;81.77
52957;BME280;38819;42.692;23.342;2023-12-07T03:28:12;94938.94;;;6.55;81.77
52957;BME280;38819;42.692;23.342;2023-12-07T03:30:37;94945.88;;;6.66;81.60
52957;BME280;38819;42.692;23.342;2023-12-07T03:33:03;94948.59;;;6.56;82.12
52957;BME280;38819;42.692;23.342;2023-12-07T03:35:28;94950.22;;;6.52;82.57
52957;BME280;38819;42.692;23.342;2023-12-07T03:37:53;94948.31;;;6.57;82.38
52957;BME280;38819;42.692;23.342;2023-12-07T03:40:19;94953.94;;;6.61;82.17
52957;BME280;38819;42.692;23.342;2023-12-07T03:42:44;94949.38;;;6.61;81.72
52957;BME280;38819;42.692;23.342;2023-12-07T03:45:09;94956.91;;;6.59;81.54
52957;BME280;38819;42.692;23.342;2023-12-07T03:47:34;94955.00;;;6.60;81.86
52957;BME280;38819;42.692;23.342;2023-12-07T03:50:00;94949.66;;;6.65;81.70
52957;BME280;38819;42.692;23.342;2023-12-07T03:52:25;94951.50;;;6.70;81.54
52957;BME280;38819;42.692;23.342;2023-12-07T03:54:50;94932.69;;;6.70;81.36
52957;BME280;38819;42.692;23.342;2023-12-07T03:57:15;94943.19;;;6.66;81.41
52957;BME280;38819;42.692;23.342;2023-12-07T03:59:40;94933.00;;;6.63;81.02
52957;BME280;38819;42.692;23.342;2023-12-07T04:02:06;94942.41;;;6.65;81.01
52957;BME280;38819;42.692;23.342;2023-12-07T04:04:31;94941.28;;;6.66;80.72
52957;BME280;38819;42.692;23.342;2023-12-07T04:06:56;94935.94;;;6.72;80.44
52957;BME280;38819;42.692;23.342;2023-12-07T04:09:21;94935.91;;;6.77;80.61
52957;BME280;38819;42.692;23.342;2023-12-07T04:11:47;94935.13;;;6.71;80.82
52957;BME280;38819;42.692;23.342;2023-12-07T04:14:12;94932.38;;;6.81;81.13
52957;BME280;38819;42.692;23.342;2023-12-07T04:16:37;94935.88;;;6.87;80.35
52957;BME280;38819;42.692;23.342;2023-12-07T04:19:02;94944.47;;;6.84;80.05
52957;BME280;38819;42.692;23.342;2023-12-07T04:21:28;94952.78;;;6.88;79.85
52957;BME280;38819;42.692;23.342;2023-12-07T04:23:53;94947.91;;;6.90;79.91
52957;BME280;38819;42.692;23.342;2023-12-07T04:26:18;94952.53;;;6.84;79.71
52957;BME280;38819;42.692;23.342;2023-12-07T04:28:43;94955.19;;;6.84;79.63
52957;BME280;38819;42.692;23.342;2023-12-07T04:31:09;94953.31;;;6.84;79.66
52957;BME280;38819;42.692;23.342;2023-12-07T04:33:34;94961.34;;;6.90;79.41
52957;BME280;38819;42.692;23.342;2023-12-07T04:35:59;94967.50;;;6.95;79.30
52957;BME280;38819;42.692;23.342;2023-12-07T04:38:24;94969.41;;;6.90;79.35
52957;BME280;38819;42.692;23.342;2023-12-07T04:40:49;94973.97;;;6.89;79.19
52957;BME280;38819;42.692;23.342;2023-12-07T04:43:15;94978.28;;;6.90;79.01
52957;BME280;38819;42.692;23.342;2023-12-07T04:45:40;94969.16;;;6.81;79.14
52957;BME280;38819;42.692;23.342;2023-12-07T04:48:06;94974.78;;;6.90;79.38
52957;BME280;38819;42.692;23.342;2023-12-07T04:50:31;94964.81;;;6.95;79.42
52957;BME280;38819;42.692;23.342;2023-12-07T04:52:57;94967.25;;;6.97;80.04
52957;BME280;38819;42.692;23.342;2023-12-07T04:55:22;94968.81;;;7.03;80.05
52957;BME280;38819;42.692;23.342;2023-12-07T04:57:47;94977.09;;;7.07;79.89
52957;BME280;38819;42.692;23.342;2023-12-07T05:00:13;94982.78;;;7.05;79.65
52957;BME280;38819;42.692;23.342;2023-12-07T05:02:39;94984.97;;;6.93;79.59
52957;BME280;38819;42.692;23.342;2023-12-07T05:05:04;94985.81;;;6.78;80.26
52957;BME280;38819;42.692;23.342;2023-12-07T05:07:30;94983.69;;;6.75;80.31
52957;BME280;38819;42.692;23.342;2023-12-07T05:09:55;94987.97;;;6.81;80.33
52957;BME280;38819;42.692;23.342;2023-12-07T05:12:20;94985.03;;;6.77;80.63
52957;BME280;38819;42.692;23.342;2023-12-07T05:14:45;94988.50;;;6.78;80.55
52957;BME280;38819;42.692;23.342;2023-12-07T05:17:12;95000.56;;;6.85;80.49
52957;BME280;38819;42.692;23.342;2023-12-07T05:19:37;94990.91;;;6.79;80.42
52957;BME280;38819;42.692;23.342;2023-12-07T05:22:02;94985.78;;;6.88;80.38
52957;BME280;38819;42.692;23.342;2023-12-07T05:24:28;94993.84;;;6.88;80.36
52957;BME280;38819;42.692;23.342;2023-12-07T05:26:53;94997.06;;;6.90;79.81
52957;BME280;38819;42.692;23.342;2023-12-07T05:29:18;94994.09;;;6.86;79.87
52957;BME280;38819;42.692;23.342;2023-12-07T05:31:44;94991.72;;;6.80;80.37
52957;BME280;38819;42.692;23.342;2023-12-07T05:34:09;94993.34;;;6.81;80.29
52957;BME280;38819;42.692;23.342;2023-12-07T05:36:34;94991.72;;;6.80;80.14
52957;BME280;38819;42.692;23.342;2023-12-07T05:38:59;95001.63;;;6.84;80.08
52957;BME280;38819;42.692;23.342;2023-12-07T05:41:25;94999.78;;;6.85;80.00
52957;BME280;38819;42.692;23.342;2023-12-07T05:43:50;95001.88;;;6.88;80.24
52957;BME280;38819;42.692;23.342;2023-12-07T05:46:16;95007.22;;;6.93;80.19
52957;BME280;38819;42.692;23.342;2023-12-07T05:48:41;95000.53;;;6.91;80.01
52957;BME280;38819;42.692;23.342;2023-12-07T05:51:11;95006.19;;;6.89;80.29
52957;BME280;38819;42.692;23.342;2023-12-07T05:53:36;95005.91;;;6.91;80.21
52957;BME280;38819;42.692;23.342;2023-12-07T05:56:01;95011.03;;;6.87;80.55
52957;BME280;38819;42.692;23.342;2023-12-07T05:58:27;95015.84;;;6.95;80.22
52957;BME280;38819;42.692;23.342;2023-12-07T06:00:52;95015.00;;;6.95;80.10
52957;BME280;38819;42.692;23.342;2023-12-07T06:03:17;95017.97;;;7.03;79.80
52957;BME280;38819;42.692;23.342;2023-12-07T06:05:43;95016.31;;;7.08;79.46
52957;BME280;38819;42.692;23.342;2023-12-07T06:08:10;95015.00;;;7.05;79.49
52957;BME280;38819;42.692;23.342;2023-12-07T06:10:35;95012.59;;;7.03;79.68
52957;BME280;38819;42.692;23.342;2023-12-07T06:13:01;95015.81;;;7.00;79.78
52957;BME280;38819;42.692;23.342;2023-12-07T06:15:26;95013.94;;;7.01;79.77
52957;BME280;38819;42.692;23.342;2023-12-07T06:17:52;95024.13;;;7.04;79.46
52957;BME280;38819;42.692;23.342;2023-12-07T06:20:17;95024.91;;;7.04;79.79
52957;BME280;38819;42.692;23.342;2023-12-07T06:22:42;95033.53;;;7.01;79.66
52957;BME280;38819;42.692;23.342;2023-12-07T06:25:08;95026.81;;;7.04;79.45
52957;BME280;38819;42.692;23.342;2023-12-07T06:27:34;95024.31;;;7.18;79.15
52957;BME280;38819;42.692;23.342;2023-12-07T06:29:59;95034.81;;;7.19;79.00
52957;BME280;38819;42.692;23.342;2023-12-07T06:32:24;95022.16;;;7.20;78.88
52957;BME280;38819;42.692;23.342;2023-12-07T06:34:50;95026.19;;;7.22;78.73
52957;BME280;38819;42.692;23.342;2023-12-07T06:37:15;95026.97;;;7.28;78.75
52957;BME280;38819;42.692;23.342;2023-12-07T06:39:42;95031.25;;;7.34;78.57
52957;BME280;38819;42.692;23.342;2023-12-07T06:42:07;95038.25;;;7.35;78.30
52957;BME280;38819;42.692;23.342;2023-12-07T06:44:32;95036.16;;;7.22;78.05
52957;BME280;38819;42.692;23.342;2023-12-07T06:46:58;95036.69;;;7.19;78.49
52957;BME280;38819;42.692;23.342;2023-12-07T06:49:23;95039.09;;;7.26;78.59
52957;BME280;38819;42.692;23.342;2023-12-07T06:51:49;95041.28;;;7.18;78.36
52957;BME280;38819;42.692;23.342;2023-12-07T06:54:14;95043.13;;;7.18;78.49
52957;BME280;38819;42.692;23.342;2023-12-07T06:56:39;95042.91;;;7.09;78.58
52957;BME280;38819;42.692;23.342;2023-12-07T06:59:04;95039.69;;;7.12;78.49
52957;BME280;38819;42.692;23.342;2023-12-07T07:01:30;95039.94;;;7.11;79.11
52957;BME280;38819;42.692;23.342;2023-12-07T07:03:55;95045.81;;;7.18;78.86
52957;BME280;38819;42.692;23.342;2023-12-07T07:06:21;95040.44;;;7.18;79.03
52957;BME280;38819;42.692;23.342;2023-12-07T07:08:46;95040.41;;;7.23;78.83
52957;BME280;38819;42.692;23.342;2023-12-07T07:11:12;95041.56;;;7.12;78.70
52957;BME280;38819;42.692;23.342;2023-12-07T07:13:38;95049.03;;;7.20;78.56
52957;BME280;38819;42.692;23.342;2023-12-07T07:16:04;95052.78;;;7.24;78.67
52957;BME280;38819;42.692;23.342;2023-12-07T07:18:29;95052.31;;;7.12;78.78
52957;BME280;38819;42.692;23.342;2023-12-07T07:20:54;95046.16;;;7.01;79.22
52957;BME280;38819;42.692;23.342;2023-12-07T07:23:20;95053.41;;;7.05;79.77
52957;BME280;38819;42.692;23.342;2023-12-07T07:25:45;95049.63;;;7.07;79.45
52957;BME280;38819;42.692;23.342;2023-12-07T07:28:10;95059.31;;;7.02;79.46
52957;BME280;38819;42.692;23.342;2023-12-07T07:30:35;95059.88;;;6.94;79.49
52957;BME280;38819;42.692;23.342;2023-12-07T07:33:00;95062.03;;;6.92;80.16
52957;BME280;38819;42.692;23.342;2023-12-07T07:35:26;95061.22;;;6.92;80.47
52957;BME280;38819;42.692;23.342;2023-12-07T07:37:52;95067.66;;;6.91;80.11
52957;BME280;38819;42.692;23.342;2023-12-07T07:40:19;95069.81;;;6.89;80.07
52957;BME280;38819;42.692;23.342;2023-12-07T07:42:44;95069.56;;;6.85;79.95
52957;BME280;38819;42.692;23.342;2023-12-07T07:45:09;95075.75;;;6.75;80.21
52957;BME280;38819;42.692;23.342;2023-12-07T07:47:34;95070.94;;;6.67;80.81
52957;BME280;38819;42.692;23.342;2023-12-07T07:50:00;95075.00;;;6.44;81.73
52957;BME280;38819;42.692;23.342;2023-12-07T07:52:30;95077.69;;;6.34;82.56
52957;BME280;38819;42.692;23.342;2023-12-07T07:54:55;95074.19;;;6.43;82.23
52957;BME280;38819;42.692;23.342;2023-12-07T07:57:21;95077.41;;;6.45;82.39
52957;BME280;38819;42.692;23.342;2023-12-07T07:59:46;95077.41;;;6.56;81.90
52957;BME280;38819;42.692;23.342;2023-12-07T08:02:11;95084.38;;;6.57;81.15
52957;BME280;38819;42.692;23.342;2023-12-07T08:04:37;95095.09;;;6.46;80.58
52957;BME280;38819;42.692;23.342;2023-12-07T08:07:02;95095.66;;;6.48;80.32
52957;BME280;38819;42.692;23.342;2023-12-07T08:09:27;95094.28;;;6.51;79.83
52957;BME280;38819;42.692;23.342;2023-12-07T08:11:53;95106.91;;;6.51;80.13
52957;BME280;38819;42.692;23.342;2023-12-07T08:14:18;95103.41;;;6.40;79.69
52957;BME280;38819;42.692;23.342;2023-12-07T08:16:46;95098.59;;;6.26;79.93
52957;BME280;38819;42.692;23.342;2023-12-07T08:19:12;95105.31;;;6.24;79.99
52957;BME280;38819;42.692;23.342;2023-12-07T08:21:37;95102.34;;;6.25;79.96
52957;BME280;38819;42.692;23.342;2023-12-07T08:24:02;95110.66;;;6.24;80.01
52957;BME280;38819;42.692;23.342;2023-12-07T08:26:28;95113.88;;;6.21;80.39
52957;BME280;38819;42.692;23.342;2023-12-07T08:28:53;95116.56;;;6.26;80.26
52957;BME280;38819;42.692;23.342;2023-12-07T08:31:19;95115.22;;;6.23;79.61
52957;BME280;38819;42.692;23.342;2023-12-07T08:33:44;95114.41;;;6.28;79.77
52957;BME280;38819;42.692;23.342;2023-12-07T08:36:10;95119.50;;;6.24;79.54
52957;BME280;38819;42.692;23.342;2023-12-07T08:38:35;95113.34;;;6.03;79.72
52957;BME280;38819;42.692;23.342;2023-12-07T08:41:00;95120.84;;;6.11;78.65
52957;BME280;38819;42.692;23.342;2023-12-07T08:43:26;95128.06;;;6.06;78.42
52957;BME280;38819;42.692;23.342;2023-12-07T08:45:53;95125.13;;;6.12;78.50
52957;BME280;38819;42.692;23.342;2023-12-07T08:48:22;95124.06;;;6.14;77.85
52957;BME280;38819;42.692;23.342;2023-12-07T08:50:47;95130.22;;;5.99;78.19
52957;BME280;38819;42.692;23.342;2023-12-07T08:53:12;95130.75;;;6.01;78.25
52957;BME280;38819;42.692;23.342;2023-12-07T08:55:37;95129.59;;;5.86;79.00
52957;BME280;38819;42.692;23.342;2023-12-07T08:58:03;95138.19;;;5.88;78.99
52957;BME280;38819;42.692;23.342;2023-12-07T09:00:31;95130.22;;;5.99;78.79
52957;BME280;38819;42.692;23.342;2023-12-07T09:02:57;95134.44;;;5.94;78.26
52957;BME280;38819;42.692;23.342;2023-12-07T09:05:22;95127.78;;;5.97;78.27
52957;BME280;38819;42.692;23.342;2023-12-07T09:07:47;95123.22;;;5.98;77.91
52957;BME280;38819;42.692;23.342;2023-12-07T09:10:13;95128.84;;;5.96;78.30
52957;BME280;38819;42.692;23.342;2023-12-07T09:12:38;95122.97;;;5.99;77.43
52957;BME280;38819;42.692;23.342;2023-12-07T09:15:03;95120.81;;;6.06;77.44
52957;BME280;38819;42.692;23.342;2023-12-07T09:17:29;95117.34;;;6.06;77.36
52957;BME280;38819;42.692;23.342;2023-12-07T09:19:54;95128.06;;;6.16;77.15
52957;BME280;38819;42.692;23.342;2023-12-07T09:22:19;95136.41;;;6.20;77.07
52957;BME280;38819;42.692;23.342;2023-12-07T09:24:45;95123.28;;;6.28;76.91
52957;BME280;38819;42.692;23.342;2023-12-07T09:27:11;95132.91;;;6.29;76.00
52957;BME280;38819;42.692;23.342;2023-12-07T09:29:36;95135.59;;;6.24;76.25
52957;BME280;38819;42.692;23.342;2023-12-07T09:32:02;95129.69;;;6.12;76.02
52957;BME280;38819;42.692;23.342;2023-12-07T09:34:27;95132.13;;;6.14;76.00
52957;BME280;38819;42.692;23.342;2023-12-07T09:37:05;95139.31;;;6.03;76.20
52957;BME280;38819;42.692;23.342;2023-12-07T09:39:30;95134.47;;;6.00;76.33
52957;BME280;38819;42.692;23.342;2023-12-07T09:41:55;95143.00;;;5.86;76.68
52957;BME280;38819;42.692;23.342;2023-12-07T09:44:21;95143.00;;;5.86;77.60
52957;BME280;38819;42.692;23.342;2023-12-07T09:46:46;95138.72;;;5.85;77.81
52957;BME280;38819;42.692;23.342;2023-12-07T09:49:11;95134.44;;;5.89;77.79
52957;BME280;38819;42.692;23.342;2023-12-07T09:51:36;95138.19;;;5.83;76.69
52957;BME280;38819;42.692;23.342;2023-12-07T09:54:03;95133.34;;;5.75;77.51
52957;BME280;38819;42.692;23.342;2023-12-07T09:56:29;95138.69;;;5.75;77.67
52957;BME280;38819;42.692;23.342;2023-12-07T09:58:54;95151.53;;;5.68;78.28
52957;BME280;38819;42.692;23.342;2023-12-07T10:01:19;95145.38;;;5.67;77.17
52957;BME280;38819;42.692;23.342;2023-12-07T10:03:44;95139.75;;;5.69;76.48
52957;BME280;38819;42.692;23.342;2023-12-07T10:06:11;95137.03;;;5.59;76.62
52957;BME280;38819;42.692;23.342;2023-12-07T10:08:37;95136.25;;;5.63;77.00
52957;BME280;38819;42.692;23.342;2023-12-07T10:11:03;95145.59;;;5.55;76.97
52957;BME280;38819;42.692;23.342;2023-12-07T10:13:29;95141.00;;;5.46;77.24
52957;BME280;38819;42.692;23.342;2023-12-07T10:16:04;95145.06;;;5.59;77.79
52957;BME280;38819;42.692;23.342;2023-12-07T10:18:31;95139.47;;;5.60;76.82
52957;BME280;38819;42.692;23.342;2023-12-07T10:20:56;95135.94;;;5.54;77.12
52957;BME280;38819;42.692;23.342;2023-12-07T10:23:21;95146.13;;;5.57;76.99
52957;BME280;38819;42.692;23.342;2023-12-07T10:25:50;95141.84;;;5.56;76.92
52957;BME280;38819;42.692;23.342;2023-12-07T10:28:15;95137.00;;;5.48;76.41
52957;BME280;38819;42.692;23.342;2023-12-07T10:30:42;95137.00;;;5.48;75.92
52957;BME280;38819;42.692;23.342;2023-12-07T10:33:09;95136.72;;;5.45;76.12
52957;BME280;38819;42.692;23.342;2023-12-07T10:35:40;95138.03;;;5.37;76.46
52957;BME280;38819;42.692;23.342;2023-12-07T10:38:06;95137.19;;;5.31;77.40
52957;BME280;38819;42.692;23.342;2023-12-07T10:40:32;95139.91;;;5.36;77.25
52957;BME280;38819;42.692;23.342;2023-12-07T10:42:57;95132.91;;;5.30;76.45
52957;BME280;38819;42.692;23.342;2023-12-07T10:45:26;95136.13;;;5.37;76.30
52957;BME280;38819;42.692;23.342;2023-12-07T10:47:54;95140.41;;;5.33;77.25
52957;BME280;38819;42.692;23.342;2023-12-07T10:50:26;95146.53;;;5.29;77.17
52957;BME280;38819;42.692;23.342;2023-12-07T10:52:53;95135.47;;;5.10;77.99
52957;BME280;38819;42.692;23.342;2023-12-07T10:55:20;95142.94;;;5.08;78.35
52957;BME280;38819;42.692;23.342;2023-12-07T10:57:46;95134.63;;;5.04;79.01
52957;BME280;38819;42.692;23.342;2023-12-07T11:00:12;95140.00;;;5.04;78.63
52957;BME280;38819;42.692;23.342;2023-12-07T11:02:37;95138.16;;;5.10;78.79
52957;BME280;38819;42.692;23.342;2023-12-07T11:05:03;95136.56;;;5.14;78.45
52957;BME280;38819;42.692;23.342;2023-12-07T11:07:33;95130.69;;;5.17;79.28
52957;BME280;38819;42.692;23.342;2023-12-07T11:10:07;95134.75;;;5.25;78.62
52957;BME280;38819;42.692;23.342;2023-12-07T11:12:41;95135.84;;;5.29;77.39
52957;BME280;38819;42.692;23.342;2023-12-07T11:15:12;95142.22;;;5.23;77.36
52957;BME280;38819;42.692;23.342;2023-12-07T11:17:51;95137.94;;;5.16;77.94
52957;BME280;38819;42.692;23.342;2023-12-07T11:20:22;95133.66;;;5.20;77.77
52957;BME280;38819;42.692;23.342;2023-12-07T11:22:47;95143.22;;;5.06;77.73
52957;BME280;38819;42.692;23.342;2023-12-07T11:25:15;95131.41;;;5.02;77.78
52957;BME280;38819;42.692;23.342;2023-12-07T11:27:40;95144.28;;;5.05;78.54
52957;BME280;38819;42.692;23.342;2023-12-07T11:30:12;95139.25;;;5.19;78.19
52957;BME280;38819;42.692;23.342;2023-12-07T11:32:37;95137.97;;;5.22;77.50
52957;BME280;38819;42.692;23.342;2023-12-07T11:35:03;95139.84;;;5.26;77.51
52957;BME280;38819;42.692;23.342;2023-12-07T11:38:00;95131.00;;;5.26;77.51
52957;BME280;38819;42.692;23.342;2023-12-07T11:40:15;95127.28;;;5.32;77.55
52957;BME280;38819;42.692;23.342;2023-12-07T11:42:41;95130.72;;;5.22;77.19
52957;BME280;38819;42.692;23.342;2023-12-07T11:45:08;95126.16;;;5.23;77.63
52957;BME280;38819;42.692;23.342;2023-12-07T11:47:33;95123.25;;;5.29;77.30
52957;BME280;38819;42.692;23.342;2023-12-07T11:50:01;95118.97;;;5.28;77.13
52957;BME280;38819;42.692;23.342;2023-12-07T11:52:28;95125.91;;;5.29;77.25
52957;BME280;38819;42.692;23.342;2023-12-07T11:54:53;95117.38;;;5.37;77.15
52957;BME280;38819;42.692;23.342;2023-12-07T11:57:18;95113.13;;;5.36;77.62
52957;BME280;38819;42.692;23.342;2023-12-07T11:59:44;95115.53;;;5.38;76.86
52957;BME280;38819;42.692;23.342;2023-12-07T12:02:12;95122.22;;;5.35;77.10
52957;BME280;38819;42.692;23.342;2023-12-07T12:04:37;95124.63;;;5.37;76.95
52957;BME280;38819;42.692;23.342;2023-12-07T12:07:03;95117.38;;;5.32;77.24
52957;BME280;38819;42.692;23.342;2023-12-07T12:09:28;95121.91;;;5.27;77.35
52957;BME280;38819;42.692;23.342;2023-12-07T12:11:54;95121.88;;;5.22;77.60
52957;BME280;38819;42.692;23.342;2023-12-07T12:14:19;95127.00;;;5.28;77.16
52957;BME280;38819;42.692;23.342;2023-12-07T12:16:45;95130.47;;;5.29;77.67
52957;BME280;38819;42.692;23.342;2023-12-07T12:19:11;95125.94;;;5.34;77.48
52957;BME280;38819;42.692;23.342;2023-12-07T12:21:36;95124.09;;;5.35;77.36
52957;BME280;38819;42.692;23.342;2023-12-07T12:24:04;95127.00;;;5.28;77.53
52957;BME280;38819;42.692;23.342;2023-12-07T12:26:29;95124.31;;;5.23;77.62
52957;BME280;38819;42.692;23.342;2023-12-07T12:28:54;95119.22;;;5.22;77.84
52957;BME280;38819;42.692;23.342;2023-12-07T12:31:19;95127.25;;;5.22;78.30
52957;BME280;38819;42.692;23.342;2023-12-07T12:33:45;95128.50;;;5.09;77.77
52957;BME280;38819;42.692;23.342;2023-12-07T12:36:10;95116.47;;;5.06;77.63
52957;BME280;38819;42.692;23.342;2023-12-07T12:38:36;95114.47;;;4.86;77.59
52957;BME280;38819;42.692;23.342;2023-12-07T12:41:02;95123.53;;;4.80;78.77
52957;BME280;38819;42.692;23.342;2023-12-07T12:43:29;95118.47;;;4.83;78.83
52957;BME280;38819;42.692;23.342;2023-12-07T12:45:54;95113.94;;;4.89;78.35
52957;BME280;38819;42.692;23.342;2023-12-07T12:48:19;95117.16;;;4.86;78.55
52957;BME280;38819;42.692;23.342;2023-12-07T12:50:45;95124.13;;;4.92;78.37
52957;BME280;38819;42.692;23.342;2023-12-07T12:53:10;95134.75;;;4.77;79.05
52957;BME280;38819;42.692;23.342;2023-12-07T12:55:36;95126.78;;;4.87;77.96
52957;BME280;38819;42.692;23.342;2023-12-07T12:58:02;95130.78;;;4.85;78.28